Time;durP1;ratioP1;P1;durP2;ratioP2;P2;SDS_P1;SDS_P2;PMS_P1;PMS_P2;Temp;Humidity;BMP_temperature;BMP_pressure;BME280_temperature;BME280_humidity;BME280_pressure;Samples;Min_cycle;Max_cycle;Signal;HPM_P1;HPM_P2
2024/01/29 00:01:31;;;;;;;5.70;5.10;;;;;;;4.81;63.63;96326.09;4962246;28;20232;-86
2024/01/29 00:04:29;;;;;;;8.37;5.03;;;;;;;4.91;63.22;96330.47;4961226;29;20236;-86
2024/01/29 00:07:10;;;;;;;7.93;5.13;;;;;;;4.94;63.19;96327.66;4960607;28;20204;-85
2024/01/29 00:09:45;;;;;;;5.93;4.47;;;;;;;4.97;62.53;96301.91;4960999;29;20221;-85
2024/01/29 00:12:35;;;;;;;5.60;4.97;;;;;;;4.97;62.75;96295.06;4961067;28;20201;-85
2024/01/29 00:15:15;;;;;;;5.23;4.50;;;;;;;4.98;62.05;96255.84;4958511;28;20201;-85
2024/01/29 00:17:50;;;;;;;5.30;4.50;;;;;;;4.91;61.68;96243.72;4958353;29;20224;-85
2024/01/29 00:20:27;;;;;;;5.30;4.53;;;;;;;4.81;62.29;96248.78;4960916;28;20215;-85
2024/01/29 00:23:08;;;;;;;5.33;4.30;;;;;;;4.75;62.13;96254.34;4960854;28;20204;-86
2024/01/29 00:25:47;;;;;;;5.73;4.40;;;;;;;4.75;62.17;96251.81;4960591;29;20208;-84
2024/01/29 00:28:47;;;;;;;8.67;4.93;;;;;;;4.76;62.06;96244.03;4957906;28;20234;-85
2024/01/29 00:31:29;;;;;;;6.27;4.23;;;;;;;4.68;61.67;96213.22;4941722;28;20209;-86
2024/01/29 00:34:19;;;;;;;5.27;4.60;;;;;;;4.50;61.53;96210.44;4963106;28;20208;-87
2024/01/29 00:37:04;;;;;;;4.67;4.17;;;;;;;4.55;61.82;96229.66;4979643;28;20207;-84
2024/01/29 00:40:04;;;;;;;5.13;3.97;;;;;;;4.56;62.12;96229.53;4987548;28;20192;-85
2024/01/29 00:42:41;;;;;;;5.23;4.30;;;;;;;4.67;62.13;96238.84;4973351;28;20212;-84
2024/01/29 00:45:27;;;;;;;;;;;;;;;;;;;;;
2024/01/29 00:48:20;;;;;;;4.97;3.73;;;;;;;4.81;62.18;96236.00;4977882;28;20227;-84
2024/01/29 00:50:55;;;;;;;5.87;4.43;;;;;;;4.90;62.41;96255.66;4963597;28;20200;-85
2024/01/29 00:56:26;;;;;;;5.77;4.43;;;;;;;4.98;62.01;96258.41;4955877;28;20204;-85
2024/01/29 01:01:51;;;;;;;5.10;4.07;;;;;;;4.90;61.61;96237.00;4974987;28;20305;-85
2024/01/29 01:04:29;;;;;;;5.63;3.90;;;;;;;4.84;61.78;96236.53;4961471;28;20201;-85
2024/01/29 01:07:10;;;;;;;5.53;4.17;;;;;;;4.74;62.28;96261.19;4957735;28;20292;-86
2024/01/29 01:09:43;;;;;;;5.60;4.57;;;;;;;4.74;62.54;96266.31;4941286;29;20224;-85
2024/01/29 01:12:24;;;;;;;5.77;4.53;;;;;;;4.75;62.24;96274.75;4964128;28;20231;-86
2024/01/29 01:15:09;;;;;;;6.73;4.27;;;;;;;4.71;62.15;96273.38;4977338;28;20204;-84
2024/01/29 01:17:51;;;;;;;5.00;4.27;;;;;;;4.69;62.49;96276.06;4971889;28;20306;-86
2024/01/29 01:20:53;;;;;;;6.20;4.77;;;;;;;4.68;62.48;96287.19;4961729;28;20192;-85
2024/01/29 01:23:45;;;;;;;5.60;4.30;;;;;;;4.63;62.71;96284.19;4926410;29;20204;-86
2024/01/29 01:26:44;;;;;;;5.27;4.20;;;;;;;4.57;62.50;96294.09;4956079;28;20260;-85
2024/01/29 01:29:25;;;;;;;4.97;4.20;;;;;;;4.55;62.69;96284.00;4959449;28;20221;-85
2024/01/29 01:31:58;;;;;;;5.90;4.50;;;;;;;4.48;62.57;96282.88;4961228;28;20204;-84
2024/01/29 01:34:57;;;;;;;4.90;4.10;;;;;;;4.23;63.54;96309.50;4958671;28;20224;-86
2024/01/29 01:37:47;;;;;;;6.07;4.60;;;;;;;4.25;63.69;96324.66;4977251;28;20225;-86
2024/01/29 01:40:48;;;;;;;6.33;4.33;;;;;;;4.19;63.99;96325.16;4959210;28;20205;-85
2024/01/29 01:43:29;;;;;;;4.83;4.27;;;;;;;4.13;63.99;96339.97;4971465;28;20219;-85
2024/01/29 01:46:48;;;;;;;;;;;;;;;;;;;;;
2024/01/29 01:49:23;;;;;;;5.10;4.20;;;;;;;4.26;64.00;96341.56;4954490;28;20236;-86
2024/01/29 01:52:21;;;;;;;5.13;4.20;;;;;;;4.24;63.60;96323.84;4977625;28;20223;-86
2024/01/29 01:54:58;;;;;;;4.47;4.07;;;;;;;4.28;63.77;96322.69;4938581;28;20235;-86
2024/01/29 01:57:51;;;;;;;6.57;4.37;;;;;;;4.31;63.52;96309.69;4959317;28;20892;-86
2024/01/29 02:00:27;;;;;;;4.57;3.80;;;;;;;4.29;63.36;96309.00;4975799;28;20200;-84
2024/01/29 02:03:01;;;;;;;5.33;4.13;;;;;;;4.24;63.44;96300.91;4961505;28;20193;-86
2024/01/29 02:05:32;;;;;;;5.40;3.90;;;;;;;4.20;63.44;96304.63;4962857;28;20204;-85
2024/01/29 02:08:13;;;;;;;5.03;4.43;;;;;;;4.00;64.01;96313.00;4961837;28;20593;-85
2024/01/29 02:13:43;;;;;;;5.53;4.37;;;;;;;3.92;64.47;96356.91;4954283;28;20204;-86
2024/01/29 02:16:29;;;;;;;5.57;4.67;;;;;;;3.87;64.55;96365.81;4981908;28;20214;-86
2024/01/29 02:19:18;;;;;;;5.00;4.30;;;;;;;3.85;64.79;96367.69;4984222;28;20248;-85
2024/01/29 02:21:58;;;;;;;5.30;4.30;;;;;;;3.73;64.93;96379.59;4980678;28;20204;-84
2024/01/29 02:24:34;;;;;;;5.53;4.63;;;;;;;3.73;65.08;96395.69;4979291;28;20181;-84
2024/01/29 02:27:15;;;;;;;4.90;4.40;;;;;;;3.63;65.31;96389.66;4978027;28;20244;-84
2024/01/29 02:30:08;;;;;;;5.13;4.33;;;;;;;3.62;65.69;96395.69;4983230;28;20251;-84
2024/01/29 02:32:39;;;;;;;4.77;4.27;;;;;;;3.75;65.47;96398.13;4984221;28;20268;-85
2024/01/29 02:35:28;;;;;;;5.20;4.70;;;;;;;3.86;65.30;96380.28;4978950;28;20231;-84
2024/01/29 02:38:05;;;;;;;4.80;4.30;;;;;;;3.95;64.88;96381.34;4965741;28;20244;-85
2024/01/29 02:40:55;;;;;;;4.97;4.47;;;;;;;4.02;64.84;96369.75;4958818;28;20204;-85
2024/01/29 02:43:25;;;;;;;5.33;4.60;;;;;;;4.02;64.24;96339.19;4956312;28;20249;-85
2024/01/29 02:49:01;;;;;;;5.53;4.57;;;;;;;3.94;64.46;96337.22;4976015;28;20318;-86
2024/01/29 02:51:40;;;;;;;4.90;4.07;;;;;;;3.90;64.42;96342.66;4969480;28;20197;-85
2024/01/29 02:54:12;;;;;;;6.77;4.50;;;;;;;3.91;64.33;96334.91;4977668;28;20200;-84
2024/01/29 02:56:44;;;;;;;5.70;4.50;;;;;;;3.92;64.47;96333.97;4965629;28;20205;-86
2024/01/29 02:59:21;;;;;;;5.03;4.33;;;;;;;3.92;64.43;96328.88;4956759;28;20224;-85
2024/01/29 03:01:59;;;;;;;7.97;4.20;;;;;;;3.96;64.42;96322.63;4961504;28;20211;-85
2024/01/29 03:04:31;;;;;;;4.27;3.83;;;;;;;3.87;63.96;96313.13;4946441;28;20228;-86
2024/01/29 03:07:11;;;;;;;5.23;3.90;;;;;;;3.87;63.79;96302.94;4974329;28;20603;-85
2024/01/29 03:09:46;;;;;;;5.10;4.00;;;;;;;3.88;63.96;96304.56;4975398;28;20889;-85
2024/01/29 03:12:24;;;;;;;5.50;4.40;;;;;;;3.90;63.95;96305.25;4963108;28;20196;-85
2024/01/29 03:14:56;;;;;;;4.93;3.73;;;;;;;3.75;63.95;96291.16;4955753;28;20209;-85
2024/01/29 03:17:36;;;;;;;5.10;3.80;;;;;;;3.75;63.71;96289.41;4958297;28;20238;-85
2024/01/29 03:20:15;;;;;;;3.93;3.33;;;;;;;3.79;63.95;96290.00;4969324;28;20640;-85
2024/01/29 03:25:30;;;;;;;3.70;2.97;;;;;;;3.91;63.06;96255.94;4956329;28;20268;-84
2024/01/29 03:28:13;;;;;;;4.50;3.13;;;;;;;3.99;62.83;96237.50;4957950;28;20239;-86
2024/01/29 03:30:49;;;;;;;3.23;2.93;;;;;;;4.07;62.62;96224.97;4967714;28;20664;-84
2024/01/29 03:33:26;;;;;;;4.17;3.40;;;;;;;4.04;62.97;96238.75;4963240;28;20212;-85
2024/01/29 03:36:11;;;;;;;4.47;3.37;;;;;;;4.00;62.20;96226.38;4960751;28;20254;-86
2024/01/29 03:38:55;;;;;;;3.70;3.17;;;;;;;4.04;62.44;96231.09;4937694;29;20225;-85
2024/01/29 03:41:36;;;;;;;7.40;3.50;;;;;;;4.13;62.42;96243.13;4955312;28;20264;-85
2024/01/29 03:44:21;;;;;;;5.17;4.23;;;;;;;4.09;62.83;96229.00;4956807;28;20224;-85
2024/01/29 03:47:05;;;;;;;4.93;3.73;;;;;;;4.04;62.43;96226.00;4948092;29;20232;-85
2024/01/29 03:49:59;;;;;;;4.50;3.57;;;;;;;4.03;62.38;96229.50;4953579;29;20224;-85
2024/01/29 03:52:50;;;;;;;3.27;2.83;;;;;;;4.02;61.66;96176.13;4948749;28;20205;-84
2024/01/29 03:55:35;;;;;;;4.93;3.07;;;;;;;4.00;61.81;96178.81;4957133;28;20208;-85
2024/01/29 03:58:32;;;;;;;3.30;3.00;;;;;;;4.04;62.23;96202.31;4974323;28;20292;-84
2024/01/29 04:01:26;;;;;;;4.23;2.97;;;;;;;4.10;62.54;96215.34;4956656;28;20203;-85
2024/01/29 04:04:15;;;;;;;3.80;3.20;;;;;;;4.06;62.42;96216.50;4944053;29;20213;-86
2024/01/29 04:06:50;;;;;;;3.83;3.40;;;;;;;4.03;62.17;96204.03;4963044;28;20295;-86
2024/01/29 04:09:27;;;;;;;4.60;3.33;;;;;;;3.95;62.12;96203.81;4974429;28;20238;-86
2024/01/29 04:12:09;;;;;;;4.27;3.43;;;;;;;3.95;62.43;96220.84;4972614;28;20263;-85
2024/01/29 04:15:01;;;;;;;6.03;3.63;;;;;;;3.90;62.55;96231.38;4975899;28;20617;-86
2024/01/29 04:17:39;;;;;;;4.67;3.87;;;;;;;3.82;62.59;96231.19;4936038;28;20251;-85
2024/01/29 04:20:21;;;;;;;3.97;3.20;;;;;;;3.73;62.96;96235.25;4947268;29;20574;-85
2024/01/29 04:23:01;;;;;;;4.60;3.70;;;;;;;3.64;63.08;96232.59;4956450;28;20212;-85
2024/01/29 04:25:45;;;;;;;5.20;3.80;;;;;;;3.60;63.28;96249.03;4956055;29;20197;-85
2024/01/29 04:28:18;;;;;;;5.40;3.57;;;;;;;3.64;63.22;96260.63;4956491;28;20221;-85
2024/01/29 04:30:54;;;;;;;8.03;3.60;;;;;;;3.66;63.30;96264.63;4936966;29;20243;-85
2024/01/29 04:33:38;;;;;;;4.70;3.90;;;;;;;3.57;63.44;96267.09;4971476;28;20196;-85
2024/01/29 04:36:27;;;;;;;4.80;4.00;;;;;;;3.49;63.71;96270.22;4967917;28;20204;-85
2024/01/29 04:38:59;;;;;;;4.00;3.60;;;;;;;3.50;63.58;96279.47;4956479;28;20703;-85
2024/01/29 04:44:28;;;;;;;5.17;3.73;;;;;;;3.47;63.58;96275.41;4960373;28;20205;-87
2024/01/29 04:47:29;;;;;;;4.43;3.50;;;;;;;3.46;63.40;96262.81;4942927;28;20722;-86
2024/01/29 04:49:59;;;;;;;3.57;3.17;;;;;;;3.42;63.51;96259.69;4956060;29;20306;-86
2024/01/29 04:52:40;;;;;;;3.47;3.03;;;;;;;3.44;63.13;96255.31;4955158;28;20201;-85
2024/01/29 04:55:12;;;;;;;4.27;3.00;;;;;;;3.49;62.89;96247.28;4962047;28;20216;-86
2024/01/29 04:58:19;;;;;;;;;;;;;;;;;;;;;
2024/01/29 05:00:55;;;;;;;3.97;2.80;;;;;;;3.50;62.77;96241.28;4938656;29;20730;-85
2024/01/29 05:06:55;;;;;;;4.80;3.00;;;;;;;3.41;63.36;96254.72;4932736;28;20215;-86
2024/01/29 05:13:32;;;;;;;4.47;3.33;;;;;;;3.32;63.63;96280.84;4931158;28;20205;-86
2024/01/29 05:16:26;;;;;;;3.33;3.03;;;;;;;3.21;63.97;96286.75;4955723;28;20783;-87
2024/01/29 05:22:36;;;;;;;4.00;2.90;;;;;;;3.18;64.21;96311.59;4874392;29;20214;-86
2024/01/29 05:28:14;;;;;;;4.27;3.17;;;;;;;3.26;63.81;96310.13;4956412;28;20328;-86
2024/01/29 05:31:15;;;;;;;4.33;3.20;;;;;;;3.22;63.93;96303.63;4935341;29;20222;-86
2024/01/29 05:33:41;;;;;;;4.23;3.30;;;;;;;3.20;64.07;96314.84;4924044;28;20268;-87
2024/01/29 05:36:31;;;;;;;5.23;3.53;;;;;;;3.23;64.11;96319.72;4962733;28;20192;-86
2024/01/29 05:45:31;;;;;;;3.50;2.87;;;;;;;3.08;64.40;96342.78;4955381;29;20259;-85
2024/01/29 05:48:03;;;;;;;4.90;3.00;;;;;;;3.09;64.40;96349.50;4954426;29;20225;-84
2024/01/29 05:53:48;;;;;;;3.57;2.97;;;;;;;3.05;64.40;96343.03;4952057;29;20208;-86
2024/01/29 05:56:22;;;;;;;4.23;3.20;;;;;;;3.06;64.39;96349.75;4953677;29;20296;-86
2024/01/29 05:59:11;;;;;;;3.53;3.10;;;;;;;3.05;64.47;96337.16;4960932;28;20228;-86
2024/01/29 06:01:46;;;;;;;4.47;3.20;;;;;;;3.05;64.67;96349.88;4954993;29;20754;-86
2024/01/29 06:04:33;;;;;;;4.53;3.13;;;;;;;3.01;64.64;96351.81;4955197;29;20405;-86
2024/01/29 06:07:05;;;;;;;3.87;2.80;;;;;;;3.01;64.80;96359.44;4955885;29;20236;-85
2024/01/29 06:09:49;;;;;;;4.53;3.23;;;;;;;3.05;64.49;96362.59;4957117;29;20213;-85
2024/01/29 06:18:17;;;;;;;4.40;3.60;;;;;;;3.00;64.88;96357.81;4950094;28;20243;-85
2024/01/29 06:20:56;;;;;;;4.60;3.60;;;;;;;2.91;65.09;96376.28;4956257;29;20201;-85
2024/01/29 06:23:34;;;;;;;8.17;3.63;;;;;;;2.85;65.07;96399.63;4957476;29;20201;-87
2024/01/29 06:26:06;;;;;;;5.10;3.20;;;;;;;2.72;66.01;96425.09;4956640;29;20207;-85
2024/01/29 06:28:33;;;;;;;7.63;3.27;;;;;;;2.76;66.02;96431.59;4956512;29;20226;-86
2024/01/29 06:31:14;;;;;;;6.00;3.07;;;;;;;2.88;65.73;96417.22;4957403;29;20604;-85
2024/01/29 06:33:53;;;;;;;5.10;3.37;;;;;;;2.99;65.43;96416.44;4943362;29;20216;-87
2024/01/29 06:36:24;;;;;;;4.03;3.50;;;;;;;3.04;65.27;96411.84;4926220;29;20226;-86
2024/01/29 06:39:16;;;;;;;3.87;3.40;;;;;;;3.03;65.30;96400.84;4938159;29;20471;-84
2024/01/29 06:42:03;;;;;;;4.73;3.27;;;;;;;3.08;65.18;96398.75;4937427;29;20222;-85
2024/01/29 06:44:53;;;;;;;7.67;3.40;;;;;;;3.15;65.26;96400.88;4937976;29;20289;-85
2024/01/29 06:50:26;;;;;;;10.97;8.50;;;;;;;3.17;65.21;96409.22;4862178;29;20360;-86
2024/01/29 06:53:41;;;;;;;;;;;;;;;;;;;;;
2024/01/29 06:56:14;;;;;;;9.27;4.53;;;;;;;3.25;65.16;96409.47;4960421;29;20281;-86
2024/01/29 06:59:17;;;;;;;;;;;;;;;;;;;;;
2024/01/29 07:04:54;;;;;;;6.97;3.90;;;;;;;3.19;65.13;96413.28;4958621;29;20240;-86
2024/01/29 07:07:23;;;;;;;6.63;3.80;;;;;;;3.08;67.20;96469.19;4975411;28;20225;-83
2024/01/29 07:10:25;;;;;;;5.17;3.97;;;;;;;3.09;69.95;96609.00;4976420;29;20201;-84
2024/01/29 07:16:25;;;;;;;9.10;4.20;;;;;;;3.55;66.22;96475.16;4905985;29;20709;-85
2024/01/29 07:19:09;;;;;;;7.90;4.50;;;;;;;3.98;65.11;96437.97;4954788;29;20232;-85
2024/01/29 07:24:52;;;;;;;38.60;9.47;;;;;;;5.17;61.55;96311.31;4956869;28;20252;-86
2024/01/29 07:27:27;;;;;;;13.53;5.37;;;;;;;5.68;60.00;96251.72;4958115;29;20201;-86
2024/01/29 07:29:59;;;;;;;9.80;4.47;;;;;;;6.01;59.15;96190.09;4959162;29;20216;-85
2024/01/29 07:32:31;;;;;;;7.37;4.40;;;;;;;6.35;58.16;96149.56;4945670;28;20237;-85
2024/01/29 07:37:56;;;;;;;6.77;3.87;;;;;;;7.01;56.17;96039.47;4945657;29;20272;-85
2024/01/29 07:40:28;;;;;;;5.53;3.57;;;;;;;7.20;55.45;96013.75;4957825;29;20204;-86
2024/01/29 07:42:57;;;;;;;5.47;4.10;;;;;;;6.97;55.00;95966.47;4958445;29;20221;-87
2024/01/29 07:45:28;;;;;;;5.40;4.23;;;;;;;6.86;55.56;95997.41;4960613;29;20200;-85
2024/01/29 07:48:14;;;;;;;7.33;5.13;;;;;;;7.07;55.93;96028.66;4960895;29;20252;-84
2024/01/29 07:50:43;;;;;;;10.50;6.27;;;;;;;7.25;54.76;95970.59;4966368;29;20221;-84
2024/01/29 07:53:14;;;;;;;9.93;5.67;;;;;;;7.39;54.89;95960.78;4960513;29;20223;-84
2024/01/29 07:55:43;;;;;;;6.27;5.60;;;;;;;7.53;54.79;95968.75;4959700;28;20204;-84
2024/01/29 07:58:28;;;;;;;7.90;5.00;;;;;;;7.58;54.12;95935.78;4959813;29;20267;-85
2024/01/29 08:01:03;;;;;;;6.10;5.27;;;;;;;7.59;53.88;95913.53;4960332;29;20228;-83
2024/01/29 08:03:34;;;;;;;8.83;5.50;;;;;;;7.58;53.96;95915.28;4953694;28;20220;-84
2024/01/29 08:06:04;;;;;;;8.60;5.33;;;;;;;7.52;54.35;95920.19;4959499;29;20582;-85
2024/01/29 08:08:41;;;;;;;7.67;5.43;;;;;;;7.45;54.04;95932.81;4952054;29;20284;-85
2024/01/29 08:11:09;;;;;;;8.20;5.60;;;;;;;7.41;54.32;95934.06;4960467;29;20209;-83
2024/01/29 08:13:35;;;;;;;18.77;12.83;;;;;;;7.45;54.40;95932.00;4959701;29;20215;-84
2024/01/29 08:16:05;;;;;;;24.63;18.63;;;;;;;7.55;54.67;95946.34;4959791;29;20255;-84
2024/01/29 08:18:39;;;;;;;16.27;7.93;;;;;;;7.67;54.38;95941.00;4960055;29;20229;-85
2024/01/29 08:21:06;;;;;;;9.27;5.37;;;;;;;7.77;53.82;95916.84;4959764;29;20211;-84
2024/01/29 08:23:33;;;;;;;9.27;5.77;;;;;;;7.94;53.33;95898.06;4958788;29;20291;-84
2024/01/29 08:26:01;;;;;;;8.73;5.90;;;;;;;8.22;53.38;95900.44;4959912;29;20220;-85
2024/01/29 08:28:28;;;;;;;11.13;5.57;;;;;;;8.42;52.40;95840.25;4959724;29;20300;-85
2024/01/29 08:30:59;;;;;;;9.40;6.00;;;;;;;8.62;52.03;95808.22;4961040;29;20640;-85
2024/01/29 08:33:25;;;;;;;8.03;5.30;;;;;;;8.92;51.18;95785.44;4961899;29;20232;-85
2024/01/29 08:35:51;;;;;;;7.37;5.67;;;;;;;9.17;50.71;95763.91;4962721;29;20234;-84
2024/01/29 08:38:18;;;;;;;8.03;5.20;;;;;;;9.46;50.35;95742.78;4959754;29;20232;-84
2024/01/29 08:40:45;;;;;;;6.70;5.27;;;;;;;9.75;52.66;95844.25;4960321;29;20212;-83
2024/01/29 08:43:15;;;;;;;7.03;5.40;;;;;;;9.60;50.02;95716.41;4958935;28;20283;-85
2024/01/29 08:45:41;;;;;;;6.20;4.90;;;;;;;9.63;49.13;95680.06;4960886;28;20212;-85
2024/01/29 08:48:08;;;;;;;7.13;4.40;;;;;;;9.39;48.11;95586.88;4961201;29;20249;-85
2024/01/29 08:50:34;;;;;;;9.03;4.67;;;;;;;9.58;48.36;95612.16;4960813;29;20208;-84
2024/01/29 08:53:00;;;;;;;5.53;4.13;;;;;;;9.47;47.49;95566.25;4963053;29;20205;-82
2024/01/29 08:55:28;;;;;;;7.67;5.27;;;;;;;9.50;46.63;95525.59;4968348;29;20201;-83
2024/01/29 08:57:55;;;;;;;8.50;5.53;;;;;;;9.59;46.79;95513.50;4957034;28;20236;-83
2024/01/29 09:00:23;;;;;;;5.87;4.57;;;;;;;9.78;47.11;95525.91;4974592;29;20215;-82
2024/01/29 09:02:49;;;;;;;5.10;4.30;;;;;;;9.96;47.62;95587.31;4971927;29;20208;-84
2024/01/29 09:05:17;;;;;;;9.13;4.50;;;;;;;10.02;46.82;95555.75;4957796;29;20208;-84
2024/01/29 09:07:43;;;;;;;5.33;4.07;;;;;;;10.01;48.13;95603.81;4957182;28;20287;-84
2024/01/29 09:10:10;;;;;;;6.70;4.27;;;;;;;10.16;47.49;95601.31;4955577;29;20288;-84
2024/01/29 09:12:37;;;;;;;6.67;4.20;;;;;;;10.38;48.14;95638.31;4961731;29;20232;-83
2024/01/29 09:15:04;;;;;;;6.23;4.37;;;;;;;10.58;46.96;95569.88;4957007;29;20205;-83
2024/01/29 09:17:32;;;;;;;5.60;3.90;;;;;;;10.65;45.96;95511.56;4956991;29;20239;-84
2024/01/29 09:19:59;;;;;;;8.10;3.90;;;;;;;10.73;46.23;95524.38;4956698;29;20216;-84
2024/01/29 09:22:25;;;;;;;7.30;3.97;;;;;;;10.81;45.90;95508.00;4941651;29;20214;-84
2024/01/29 09:24:52;;;;;;;5.87;3.63;;;;;;;10.75;45.35;95448.72;4938637;29;20213;-84
2024/01/29 09:27:18;;;;;;;6.27;3.17;;;;;;;10.67;44.74;95422.06;4948675;29;20209;-85
2024/01/29 09:29:44;;;;;;;5.93;3.37;;;;;;;10.65;44.68;95405.22;4956734;29;20208;-84
2024/01/29 09:32:11;;;;;;;7.87;3.60;;;;;;;10.79;44.17;95383.75;4957328;29;20729;-83
2024/01/29 09:34:39;;;;;;;5.73;3.50;;;;;;;10.89;43.44;95340.50;4957242;29;20236;-82
2024/01/29 09:37:05;;;;;;;7.40;3.10;;;;;;;11.17;43.62;95355.19;4957211;29;20205;-85
2024/01/29 09:39:34;;;;;;;8.67;3.40;;;;;;;11.42;43.21;95330.63;4956472;29;20204;-85
2024/01/29 09:42:04;;;;;;;6.47;3.63;;;;;;;11.59;41.94;95275.19;4955381;29;20204;-84
2024/01/29 09:44:39;;;;;;;5.70;3.20;;;;;;;11.72;41.71;95254.66;4954940;29;20213;-85
2024/01/29 09:47:08;;;;;;;5.77;3.10;;;;;;;11.79;41.73;95238.41;4955855;29;20208;-83
2024/01/29 09:49:35;;;;;;;5.77;3.00;;;;;;;11.99;41.12;95239.28;4956341;29;20197;-85
2024/01/29 09:52:04;;;;;;;20.97;16.47;;;;;;;12.16;41.50;95242.31;4956851;29;20278;-84
2024/01/29 09:54:31;;;;;;;4.00;3.47;;;;;;;11.83;41.80;95232.69;4956343;28;20236;-84
2024/01/29 09:56:58;;;;;;;11.03;4.03;;;;;;;11.80;41.44;95245.16;4956796;29;20208;-83
2024/01/29 09:59:24;;;;;;;8.93;3.13;;;;;;;11.76;41.74;95239.59;4955124;29;20645;-84
2024/01/29 10:01:51;;;;;;;6.13;3.20;;;;;;;11.94;41.35;95232.13;4955939;29;20200;-84
2024/01/29 10:04:18;;;;;;;6.40;3.13;;;;;;;12.10;40.77;95208.56;4955325;29;20200;-85
2024/01/29 10:06:44;;;;;;;6.30;3.00;;;;;;;12.19;39.64;95131.75;4956220;29;20200;-84
2024/01/29 10:09:12;;;;;;;3.40;2.63;;;;;;;12.36;39.64;95138.09;4954794;29;20240;-84
2024/01/29 10:11:41;;;;;;;7.23;3.10;;;;;;;12.49;39.97;95137.34;4954914;29;20221;-84
2024/01/29 10:14:08;;;;;;;5.07;2.60;;;;;;;12.25;39.63;95118.06;4953861;29;20295;-84
2024/01/29 10:16:35;;;;;;;5.00;2.50;;;;;;;12.37;39.34;95097.59;4955272;29;20216;-85
2024/01/29 10:19:05;;;;;;;5.10;2.70;;;;;;;12.40;39.75;95128.97;4956446;28;20270;-84
2024/01/29 10:21:38;;;;;;;8.20;2.93;;;;;;;12.53;40.57;95166.13;4947087;28;20259;-84
2024/01/29 10:24:06;;;;;;;7.27;2.77;;;;;;;12.71;40.57;95190.34;4958364;29;20201;-82
2024/01/29 10:26:35;;;;;;;12.07;3.37;;;;;;;12.82;40.52;95178.63;4958167;29;20205;-85
2024/01/29 10:29:02;;;;;;;5.67;3.00;;;;;;;12.85;39.96;95152.41;4958405;29;20229;-85
2024/01/29 10:31:29;;;;;;;5.03;2.83;;;;;;;12.84;39.20;95091.41;4956985;29;20233;-86
2024/01/29 10:33:56;;;;;;;4.63;2.63;;;;;;;12.99;38.35;95042.06;4960838;29;20209;-87
2024/01/29 10:36:25;;;;;;;3.60;2.70;;;;;;;13.15;38.17;95039.03;4962955;29;20193;-84
2024/01/29 10:38:52;;;;;;;4.53;2.20;;;;;;;13.35;38.72;95055.25;4958779;29;20229;-84
2024/01/29 10:41:21;;;;;;;4.73;2.50;;;;;;;13.28;38.04;95010.53;4958873;29;20228;-84
2024/01/29 10:43:49;;;;;;;4.37;2.67;;;;;;;13.32;38.35;95023.84;4958693;29;20271;-84
2024/01/29 10:46:19;;;;;;;3.10;2.20;;;;;;;13.24;37.69;94990.50;4959618;29;20232;-84
2024/01/29 10:48:46;;;;;;;7.10;2.27;;;;;;;13.25;37.46;94964.44;4959576;29;20248;-84
2024/01/29 10:51:13;;;;;;;4.70;1.93;;;;;;;13.38;36.95;94928.16;4959440;28;20689;-82
2024/01/29 10:53:41;;;;;;;6.93;1.97;;;;;;;13.51;36.64;94903.97;4961657;29;20620;-84
2024/01/29 10:56:08;;;;;;;5.20;2.20;;;;;;;13.49;35.41;94849.09;4960816;29;20201;-84
2024/01/29 10:58:51;;;;;;;6.43;1.93;;;;;;;13.44;35.50;94823.09;4963364;29;20225;-83
2024/01/29 11:01:19;;;;;;;5.40;2.20;;;;;;;13.59;35.84;94856.38;4963200;28;20212;-83
2024/01/29 11:03:46;;;;;;;3.57;1.60;;;;;;;13.62;35.15;94797.25;4957967;29;20205;-84
2024/01/29 11:06:20;;;;;;;2.80;1.93;;;;;;;13.65;34.51;94765.78;4959029;29;20243;-82
2024/01/29 11:08:52;;;;;;;24.42;20.08;;;;;;;13.56;35.96;94846.44;4960707;29;20252;-84
2024/01/29 11:11:19;;;;;;;6.03;2.37;;;;;;;13.61;35.79;94859.53;4959288;29;20201;-83
2024/01/29 11:13:46;;;;;;;5.45;2.80;;;;;;;13.63;35.39;94840.22;4953683;29;20217;-84
2024/01/29 11:16:13;;;;;;;3.47;2.10;;;;;;;13.68;34.40;94787.81;4942660;29;20715;-82
2024/01/29 11:18:40;;;;;;;5.00;2.50;;;;;;;13.57;34.48;94767.84;4950215;29;20229;-82
2024/01/29 11:21:11;;;;;;;5.97;2.17;;;;;;;13.47;33.62;94707.06;4970384;29;20296;-82
2024/01/29 11:23:44;;;;;;;2.87;2.10;;;;;;;13.46;33.87;94699.53;4970274;29;20216;-82
2024/01/29 11:26:13;;;;;;;4.23;1.70;;;;;;;13.49;32.47;94627.47;4970733;29;20232;-83
2024/01/29 11:28:40;;;;;;;2.97;1.90;;;;;;;13.48;32.49;94604.41;4970553;29;20224;-82
2024/01/29 11:31:10;;;;;;;2.53;1.60;;;;;;;13.67;33.33;94662.88;4970440;28;20213;-83
2024/01/29 11:33:36;;;;;;;4.30;2.00;;;;;;;13.75;32.58;94623.00;4969553;29;20208;-83
2024/01/29 11:36:08;;;;;;;17.80;13.10;;;;;;;13.83;33.11;94640.81;4967316;29;20224;-87
2024/01/29 11:38:34;;;;;;;9.03;3.50;;;;;;;13.89;33.97;94707.19;4971632;29;20232;-83
2024/01/29 11:41:01;;;;;;;4.30;2.35;;;;;;;13.84;32.23;94621.69;4967024;29;20209;-82
2024/01/29 11:43:28;;;;;;;4.93;2.20;;;;;;;13.76;33.38;94668.53;4965572;29;20228;-82
2024/01/29 11:45:55;;;;;;;4.35;2.50;;;;;;;13.76;34.22;94710.72;4961453;29;20204;-83
2024/01/29 11:48:23;;;;;;;7.27;3.00;;;;;;;13.96;35.02;94782.94;4961534;28;20225;-83
2024/01/29 11:50:52;;;;;;;5.00;2.97;;;;;;;14.00;34.82;94765.19;4962348;29;20197;-83
2024/01/29 11:53:23;;;;;;;8.75;3.50;;;;;;;14.20;36.11;94881.47;4960936;29;20228;-83
2024/01/29 11:55:49;;;;;;;6.28;2.70;;;;;;;14.31;36.05;94860.00;4962153;29;20446;-83
2024/01/29 11:58:18;;;;;;;5.07;2.88;;;;;;;14.43;35.81;94864.25;4961905;29;20224;-82
2024/01/29 12:00:46;;;;;;;7.97;3.25;;;;;;;14.46;34.30;94773.19;4961956;29;20204;-82
2024/01/29 12:03:14;;;;;;;4.90;2.85;;;;;;;14.49;34.74;94795.25;4963269;29;20423;-84
2024/01/29 12:05:41;;;;;;;6.30;3.17;;;;;;;14.48;33.91;94742.66;4963139;29;20216;-83
2024/01/29 12:08:13;;;;;;;4.70;2.92;;;;;;;14.36;33.93;94734.06;4960367;29;20220;-83
2024/01/29 12:10:41;;;;;;;9.65;3.40;;;;;;;14.40;34.01;94726.63;4952502;29;20237;-84
2024/01/29 12:13:12;;;;;;;7.00;2.78;;;;;;;14.33;33.09;94679.31;4961285;29;20236;-84
2024/01/29 12:15:39;;;;;;;6.55;3.00;;;;;;;14.35;33.63;94674.72;4960747;29;20215;-85
2024/01/29 12:18:09;;;;;;;12.32;3.03;;;;;;;14.51;34.05;94729.28;4961611;29;20232;-84
2024/01/29 12:20:36;;;;;;;7.60;3.50;;;;;;;14.53;33.63;94723.88;4960894;29;20196;-85
2024/01/29 12:23:03;;;;;;;10.57;3.13;;;;;;;14.57;33.35;94678.41;4961129;29;20208;-84
2024/01/29 12:25:29;;;;;;;10.93;3.15;;;;;;;14.77;34.05;94728.09;4958996;29;20212;-84
2024/01/29 12:28:04;;;;;;;9.00;3.28;;;;;;;14.88;33.42;94681.69;4961437;29;20231;-84
2024/01/29 12:30:31;;;;;;;5.15;2.85;;;;;;;14.78;32.72;94644.16;4962664;29;20196;-85
2024/01/29 12:32:57;;;;;;;11.77;7.20;;;;;;;14.74;32.66;94619.72;4962954;29;20251;-83
2024/01/29 12:35:25;;;;;;;5.00;3.50;;;;;;;14.94;33.59;94697.13;4962105;29;20209;-85
2024/01/29 12:37:52;;;;;;;4.68;2.78;;;;;;;14.92;32.38;94616.22;4961915;29;20279;-85
2024/01/29 12:40:19;;;;;;;4.43;2.58;;;;;;;14.84;32.08;94588.81;4959581;29;20200;-84
2024/01/29 12:42:48;;;;;;;6.68;2.67;;;;;;;14.90;32.46;94614.84;4961463;28;20216;-84
2024/01/29 12:45:18;;;;;;;8.20;2.70;;;;;;;15.02;32.98;94652.72;4954638;29;20192;-86
2024/01/29 12:47:45;;;;;;;3.08;2.35;;;;;;;15.27;33.13;94669.81;4962434;29;20599;-84
2024/01/29 12:50:15;;;;;;;10.63;2.72;;;;;;;15.47;33.57;94686.59;4960865;29;20621;-83
2024/01/29 12:52:42;;;;;;;5.53;2.30;;;;;;;15.65;33.03;94687.50;4960565;29;20225;-84
2024/01/29 12:55:09;;;;;;;5.38;2.78;;;;;;;15.75;32.72;94646.97;4960724;28;20658;-85
2024/01/29 12:57:35;;;;;;;5.63;2.45;;;;;;;15.61;31.74;94614.50;4959500;29;20224;-82
2024/01/29 13:00:03;;;;;;;4.53;3.20;;;;;;;15.38;31.39;94586.81;4962192;29;20212;-83
2024/01/29 13:02:30;;;;;;;6.93;2.38;;;;;;;15.33;31.00;94573.75;4962696;29;20287;-85
2024/01/29 13:04:57;;;;;;;5.82;2.45;;;;;;;15.53;31.90;94622.63;4961727;29;20259;-83
2024/01/29 13:07:25;;;;;;;47.40;42.38;;;;;;;15.56;31.37;94569.53;4947198;29;20209;-83
2024/01/29 13:09:51;;;;;;;14.55;11.38;;;;;;;15.77;32.89;94660.50;4942580;29;20213;-82
2024/01/29 13:12:18;;;;;;;8.60;3.70;;;;;;;15.86;32.73;94679.88;4955115;29;20225;-83
2024/01/29 13:14:45;;;;;;;9.57;2.90;;;;;;;15.98;33.39;94726.56;4962051;29;20212;-83
2024/01/29 13:17:11;;;;;;;7.00;2.72;;;;;;;15.91;31.66;94631.66;4961745;29;20205;-82
2024/01/29 13:19:39;;;;;;;5.68;2.33;;;;;;;15.84;32.00;94616.22;4961687;29;20211;-82
2024/01/29 13:22:06;;;;;;;7.50;2.80;;;;;;;15.88;32.42;94653.69;4961378;29;20256;-82
2024/01/29 13:24:32;;;;;;;5.78;2.55;;;;;;;15.86;31.77;94617.56;4961751;29;20263;-83